Time;durP1;ratioP1;P1;durP2;ratioP2;P2;SDS_P1;SDS_P2;PMS_P1;PMS_P2;Temp;Humidity;BMP_temperature;BMP_pressure;BME280_temperature;BME280_humidity;BME280_pressure;Samples;Min_cycle;Max_cycle;Signal;HPM_P1;HPM_P2
2022/08/29 00:00:04;;;;;;;7.70;6.65;;;;;;;19.76;100.00;99943.53;4987726;28;20038;-87
2022/08/29 00:02:30;;;;;;;7.20;6.38;;;;;;;19.79;100.00;99941.75;4991130;28;20509;-87
2022/08/29 00:04:56;;;;;;;6.97;6.20;;;;;;;19.76;100.00;99943.53;4972244;28;20129;-88
2022/08/29 00:07:21;;;;;;;7.50;6.65;;;;;;;19.73;100.00;99943.78;4990281;28;20040;-87
2022/08/29 00:09:47;;;;;;;8.40;6.13;;;;;;;19.72;100.00;99937.38;5011045;28;20552;-87
2022/08/29 00:12:12;;;;;;;7.25;6.50;;;;;;;19.72;100.00;99942.22;4989413;28;20134;-87
2022/08/29 00:14:38;;;;;;;7.20;6.40;;;;;;;19.69;100.00;99944.03;4985685;28;20037;-87
2022/08/29 00:17:04;;;;;;;7.07;6.38;;;;;;;19.61;100.00;99942.16;4957599;28;20514;-87
2022/08/29 00:19:29;;;;;;;7.10;6.40;;;;;;;19.63;100.00;99946.00;4970315;28;20061;-88
2022/08/29 00:21:55;;;;;;;7.50;6.70;;;;;;;19.61;100.00;99944.97;4990874;28;20050;-87
2022/08/29 00:24:20;;;;;;;9.35;6.90;;;;;;;19.57;100.00;99941.63;4987557;28;20042;-86
2022/08/29 00:26:46;;;;;;;6.60;6.00;;;;;;;19.57;100.00;99938.81;4979684;28;20045;-87
2022/08/29 00:29:11;;;;;;;9.43;6.90;;;;;;;19.64;100.00;99952.41;4985993;28;20128;-87
2022/08/29 00:31:37;;;;;;;7.25;6.35;;;;;;;19.52;100.00;99946.72;4970456;28;20469;-86
2022/08/29 00:34:02;;;;;;;7.45;6.53;;;;;;;19.55;100.00;99951.34;4985101;28;20046;-88
2022/08/29 00:36:28;;;;;;;7.93;6.55;;;;;;;19.52;100.00;99957.19;4983234;28;20410;-87
2022/08/29 00:38:53;;;;;;;6.72;6.13;;;;;;;19.51;100.00;99950.03;4983195;28;20038;-87
2022/08/29 00:41:19;;;;;;;8.27;6.50;;;;;;;19.54;100.00;99965.88;4986464;28;20498;-87
2022/08/29 00:43:45;;;;;;;7.88;6.50;;;;;;;19.51;100.00;99945.16;4978921;28;20050;-87
2022/08/29 00:46:38;;;;;;;7.32;6.38;;;;;;;19.51;100.00;99962.03;4998016;23;20048;-85
2022/08/29 00:49:13;;;;;;;8.57;6.78;;;;;;;19.50;100.00;99957.69;4946198;28;20047;-85
2022/08/29 00:51:39;;;;;;;9.02;6.22;;;;;;;19.53;100.00;99948.22;4944996;28;20071;-85
2022/08/29 00:54:08;;;;;;;7.80;6.53;;;;;;;19.54;100.00;99955.41;4943228;28;20629;-85
2022/08/29 00:56:36;;;;;;;8.07;6.97;;;;;;;19.50;100.00;99949.25;4952741;28;20039;-85
2022/08/29 00:59:08;;;;;;;8.80;6.63;;;;;;;19.55;100.00;99953.38;4949871;28;20062;-85
2022/08/29 01:01:34;;;;;;;8.10;6.72;;;;;;;19.57;100.00;99947.25;4945146;28;20040;-85
2022/08/29 01:03:59;;;;;;;7.78;6.97;;;;;;;19.54;100.00;99946.97;4951925;28;20506;-84
2022/08/29 01:06:26;;;;;;;8.43;6.57;;;;;;;19.54;100.00;99944.16;4951531;28;20035;-85
2022/08/29 01:08:52;;;;;;;7.40;6.63;;;;;;;19.40;100.00;99931.00;4964085;28;20103;-85
2022/08/29 01:14:02;;;;;;;7.80;6.90;;;;;;;19.42;100.00;99939.72;4947299;28;20107;-85
2022/08/29 01:16:29;;;;;;;8.80;6.93;;;;;;;19.39;100.00;99937.88;4953352;28;20410;-85
2022/08/29 01:18:58;;;;;;;7.65;6.82;;;;;;;19.40;100.00;99936.63;4950870;28;20115;-85
2022/08/29 01:21:51;;;;;;;7.50;6.63;;;;;;;19.40;100.00;99936.63;4951619;28;20334;-84
2022/08/29 01:24:42;;;;;;;8.67;7.03;;;;;;;19.40;100.00;99939.44;4952989;28;20454;-85
2022/08/29 01:27:09;;;;;;;7.60;6.78;;;;;;;19.36;100.00;99938.91;4966644;28;20522;-85
2022/08/29 01:29:35;;;;;;;9.00;6.72;;;;;;;19.34;100.00;99940.66;4952459;28;20043;-85
2022/08/29 01:32:01;;;;;;;7.45;6.75;;;;;;;19.30;100.00;99940.09;4950829;29;20105;-85
2022/08/29 01:34:27;;;;;;;8.85;7.13;;;;;;;19.26;100.00;99945.19;4963702;28;20393;-85
2022/08/29 01:36:56;;;;;;;9.23;6.90;;;;;;;19.23;100.00;99941.34;4951401;28;20048;-85
2022/08/29 01:39:27;;;;;;;9.75;6.97;;;;;;;19.17;100.00;99932.06;4952303;28;20415;-85
2022/08/29 01:41:53;;;;;;;9.50;7.43;;;;;;;19.16;100.00;99936.19;4952750;28;20130;-85
2022/08/29 01:44:21;;;;;;;8.60;7.57;;;;;;;19.11;100.00;99925.66;4953085;28;20122;-85
2022/08/29 01:46:50;;;;;;;8.07;7.28;;;;;;;19.12;100.00;99941.25;4968244;28;20049;-85
2022/08/29 01:49:16;;;;;;;7.97;7.20;;;;;;;19.11;100.00;99939.69;4981643;28;20078;-85
2022/08/29 01:51:42;;;;;;;9.18;7.53;;;;;;;19.08;100.00;99941.47;4974994;28;20031;-85
2022/08/29 01:54:09;;;;;;;10.10;7.47;;;;;;;19.07;100.00;99939.16;4977449;28;20078;-85
2022/08/29 01:56:38;;;;;;;8.27;7.45;;;;;;;19.10;100.00;99949.41;4970740;28;20049;-85
2022/08/29 01:59:07;;;;;;;9.30;7.82;;;;;;;19.06;100.00;99944.00;4937350;28;20279;-84
2022/08/29 02:36:25;;;;;;;7.88;7.07;;;;;;;19.00;100.00;99957.25;4985733;28;20066;-84
2022/08/29 02:38:51;;;;;;;10.73;7.53;;;;;;;19.00;100.00;99962.09;4990256;28;20569;-85
2022/08/29 02:41:17;;;;;;;10.48;8.07;;;;;;;18.99;100.00;99954.94;4990325;28;20121;-84
2022/08/29 02:43:43;;;;;;;9.80;7.35;;;;;;;18.95;100.00;99955.16;4989583;28;20081;-84
2022/08/29 02:46:13;;;;;;;10.32;7.63;;;;;;;18.92;100.00;99952.56;4987628;28;20050;-84
2022/08/29 02:48:39;;;;;;;8.38;7.53;;;;;;;18.97;100.00;99957.44;4989775;28;20045;-84
2022/08/29 02:51:05;;;;;;;8.98;7.30;;;;;;;18.98;100.00;99956.19;4988578;28;20057;-85
2022/08/29 02:53:30;;;;;;;8.80;7.38;;;;;;;19.02;100.00;99962.34;4989459;28;20038;-84
2022/08/29 02:55:56;;;;;;;11.60;7.65;;;;;;;18.96;100.00;99967.19;4987618;28;20058;-84
2022/08/29 02:58:23;;;;;;;8.18;7.38;;;;;;;18.97;100.00;99958.22;4988598;28;20414;-84
2022/08/29 03:00:49;;;;;;;9.55;7.63;;;;;;;19.01;100.00;99958.00;4989107;28;20121;-85
2022/08/29 03:03:15;;;;;;;10.75;7.85;;;;;;;19.03;100.00;99952.66;4984578;28;20618;-86
2022/08/29 03:05:41;;;;;;;8.02;7.10;;;;;;;19.03;100.00;99955.47;4963151;28;20039;-85
2022/08/29 03:08:09;;;;;;;10.55;8.30;;;;;;;18.96;100.00;99964.34;4982665;28;20046;-85
2022/08/29 03:10:35;;;;;;;9.93;7.75;;;;;;;18.93;100.00;99962.53;4979289;28;20054;-85
2022/08/29 03:13:01;;;;;;;8.95;7.65;;;;;;;18.93;100.00;99962.53;4987408;28;20050;-85
2022/08/29 03:15:26;;;;;;;9.32;7.40;;;;;;;18.87;100.00;99958.91;4977848;28;20038;-85
2022/08/29 03:17:53;;;;;;;11.23;7.80;;;;;;;18.93;100.00;99962.53;4984589;28;20038;-85
2022/08/29 03:20:21;;;;;;;9.73;8.10;;;;;;;18.83;100.00;99963.97;4980286;28;20045;-85
2022/08/29 03:22:48;;;;;;;10.38;7.65;;;;;;;18.83;100.00;99961.94;4984519;28;20050;-84
2022/08/29 03:25:14;;;;;;;8.52;7.32;;;;;;;18.87;100.00;99970.13;4978145;28;20050;-85
2022/08/29 03:27:39;;;;;;;10.98;7.57;;;;;;;18.84;100.00;99962.72;4987371;28;20129;-85
2022/08/29 03:30:07;;;;;;;9.02;7.85;;;;;;;18.84;100.00;99968.31;4979822;28;20074;-84
2022/08/29 03:32:32;;;;;;;9.65;8.10;;;;;;;18.86;100.00;99968.59;4958945;28;20508;-84
2022/08/29 03:34:58;;;;;;;10.18;7.80;;;;;;;18.80;100.00;99976.22;4979773;28;20134;-84
2022/08/29 03:37:25;;;;;;;10.25;7.82;;;;;;;18.75;100.00;99974.09;4958733;28;20555;-85
2022/08/29 03:39:52;;;;;;;11.50;8.20;;;;;;;18.78;100.00;99984.34;4980806;28;20130;-85
2022/08/29 03:42:18;;;;;;;10.73;8.07;;;;;;;18.84;100.00;99996.44;4986886;28;20456;-85
2022/08/29 03:44:43;;;;;;;10.02;7.75;;;;;;;18.84;100.00;99988.78;4982382;28;20138;-85
2022/08/29 03:47:09;;;;;;;11.25;7.68;;;;;;;18.79;100.00;99991.50;4985650;28;20411;-84
2022/08/29 03:49:34;;;;;;;10.40;7.82;;;;;;;18.77;100.00;99982.78;4985292;28;20038;-84
2022/08/29 03:52:00;;;;;;;12.82;8.23;;;;;;;18.75;100.00;99991.75;4986994;28;20047;-85
2022/08/29 03:54:27;;;;;;;9.98;7.97;;;;;;;18.74;100.00;99995.03;4985907;28;20069;-85
2022/08/29 03:56:52;;;;;;;12.68;8.48;;;;;;;18.75;100.00;99993.78;4989455;28;20037;-84
2022/08/29 03:59:18;;;;;;;9.90;8.18;;;;;;;18.69;100.00;99987.31;4988859;28;20410;-85
2022/08/29 04:01:46;;;;;;;10.77;8.30;;;;;;;18.74;100.00;100001.44;5008897;23;20133;-86
2022/08/29 04:05:05;;;;;;;9.88;8.10;;;;;;;18.69;100.00;99988.06;4965208;28;20134;-86
2022/08/29 04:06:59;;;;;;;12.63;7.97;;;;;;;18.69;100.00;99993.69;4986367;28;20045;-83
2022/08/29 04:09:25;;;;;;;12.02;8.32;;;;;;;18.64;100.00;99994.44;4988777;28;20038;-84
2022/08/29 04:11:50;;;;;;;11.38;8.05;;;;;;;18.66;100.00;99999.53;4972643;28;20494;-84
2022/08/29 04:14:19;;;;;;;12.40;8.57;;;;;;;18.69;100.00;99996.50;4988739;28;20038;-84
2022/08/29 04:16:47;;;;;;;10.50;8.27;;;;;;;18.71;100.00;100001.66;4975317;28;20039;-84
2022/08/29 04:19:12;;;;;;;12.48;8.63;;;;;;;18.71;100.00;100004.44;4973197;28;20398;-84
2022/08/29 04:21:38;;;;;;;10.55;8.63;;;;;;;18.73;100.00;99996.28;4981970;28;20043;-84
2022/08/29 04:24:03;;;;;;;13.10;8.52;;;;;;;18.70;100.00;100000.09;4990540;28;20034;-85
2022/08/29 04:26:29;;;;;;;12.23;8.30;;;;;;;18.72;100.00;100003.19;4990766;28;20039;-84
2022/08/29 04:28:54;;;;;;;11.98;8.40;;;;;;;18.73;100.00;99999.88;4988600;28;20124;-84
2022/08/29 04:31:20;;;;;;;9.43;8.23;;;;;;;18.71;100.00;100007.25;4984627;28;20273;-84
2022/08/29 04:33:47;;;;;;;11.30;8.02;;;;;;;18.74;100.00;100017.50;4985403;28;20181;-84
2022/08/29 04:36:13;;;;;;;14.00;8.70;;;;;;;18.73;100.00;100010.34;4979316;28;20043;-84
2022/08/29 04:38:39;;;;;;;10.07;7.75;;;;;;;18.77;100.00;100005.28;4981072;28;20034;-84
2022/08/29 04:41:06;;;;;;;10.70;8.25;;;;;;;18.78;100.00;100015.25;4982445;28;20140;-84
2022/08/29 04:43:32;;;;;;;12.65;8.35;;;;;;;18.78;100.00;100018.84;4987967;28;20410;-83
2022/08/29 04:45:57;;;;;;;10.55;8.27;;;;;;;18.80;100.00;100021.16;4982400;28;20034;-84
2022/08/29 04:48:23;;;;;;;9.70;7.63;;;;;;;18.82;100.00;100015.81;4990547;28;20047;-85
2022/08/29 04:50:55;;;;;;;9.52;8.25;;;;;;;18.91;100.00;100024.09;4988170;28;20037;-85
2022/08/29 04:53:22;;;;;;;10.68;8.55;;;;;;;18.85;100.00;100028.88;4983635;28;20054;-85
2022/08/29 04:55:57;;;;;;;11.02;8.35;;;;;;;18.90;100.00;100030.97;4993362;28;20037;-86
2022/08/29 04:58:24;;;;;;;9.00;7.78;;;;;;;18.85;100.00;100023.25;4973321;28;20082;-85
2022/08/29 05:00:50;;;;;;;9.18;8.15;;;;;;;18.93;100.00;100041.22;4970700;28;20035;-84
2022/08/29 05:03:16;;;;;;;10.05;7.72;;;;;;;19.00;100.00;100046.44;4972918;28;20061;-87
2022/08/29 05:05:41;;;;;;;9.48;8.05;;;;;;;19.06;100.00;100050.06;4987419;28;20034;-87
2022/08/29 05:08:07;;;;;;;10.38;8.23;;;;;;;19.05;100.00;100054.13;4978068;28;20042;-87
2022/08/29 05:10:32;;;;;;;11.25;8.07;;;;;;;19.01;100.00;100053.56;4957487;28;20355;-86
2022/08/29 05:12:58;;;;;;;9.40;7.47;;;;;;;19.11;100.00;100054.97;4987333;28;20064;-86
2022/08/29 05:15:23;;;;;;;14.38;8.82;;;;;;;19.16;100.00;100047.88;4973218;28;20065;-87
2022/08/29 05:17:49;;;;;;;9.45;7.75;;;;;;;19.10;100.00;100051.38;4977859;28;20406;-87
2022/08/29 05:20:15;;;;;;;12.05;8.43;;;;;;;19.13;100.00;100055.25;4964297;28;20038;-87
2022/08/29 05:22:41;;;;;;;9.30;7.60;;;;;;;19.12;100.00;100059.34;4985162;28;20038;-88
2022/08/29 05:25:08;;;;;;;11.10;8.52;;;;;;;19.15;100.00;100058.34;4974002;28;20050;-87
2022/08/29 05:27:34;;;;;;;11.43;8.50;;;;;;;19.15;100.00;100066.78;4966390;28;20055;-87
2022/08/29 05:30:00;;;;;;;10.20;8.27;;;;;;;19.08;100.00;100055.97;4978671;28;20077;-87
2022/08/29 05:32:26;;;;;;;10.95;8.15;;;;;;;19.10;100.00;100061.84;4976426;28;20090;-87
2022/08/29 05:34:51;;;;;;;11.13;8.18;;;;;;;19.18;100.00;100057.34;4968378;28;20043;-87
2022/08/29 05:37:19;;;;;;;10.32;7.95;;;;;;;19.27;100.00;100064.84;4972648;28;20046;-86
2022/08/29 05:39:46;;;;;;;11.07;8.05;;;;;;;19.29;100.00;100065.13;4981663;28;20051;-87
2022/08/29 05:42:12;;;;;;;14.60;8.50;;;;;;;19.27;100.00;100060.00;4980471;28;20522;-86
2022/08/29 05:44:38;;;;;;;9.77;8.05;;;;;;;19.32;100.00;100067.72;4982455;28;20089;-86
2022/08/29 05:47:09;;;;;;;8.95;8.07;;;;;;;19.30;100.00;100064.63;4991747;28;20046;-87
2022/08/29 05:49:36;;;;;;;10.48;7.53;;;;;;;19.34;100.00;100058.78;4960821;28;20506;-87
2022/08/29 05:52:02;;;;;;;11.18;8.07;;;;;;;19.38;100.00;100071.34;4982597;28;20030;-87
2022/08/29 05:54:28;;;;;;;9.75;7.85;;;;;;;19.45;100.00;100065.31;4980516;28;20081;-87
2022/08/29 05:56:53;;;;;;;10.65;8.55;;;;;;;19.46;100.00;100066.84;4954739;28;20050;-87
2022/08/29 05:59:19;;;;;;;8.55;7.68;;;;;;;19.48;100.00;100069.94;4987123;28;20054;-85
2022/08/29 06:01:47;;;;;;;11.75;7.97;;;;;;;19.46;100.00;100078.09;4982418;28;20168;-85
2022/08/29 06:04:13;;;;;;;12.18;8.35;;;;;;;19.44;100.00;100065.81;4983923;28;20046;-86
2022/08/29 06:06:40;;;;;;;11.50;8.27;;;;;;;19.51;100.00;100068.19;4980540;28;20035;-85
2022/08/29 06:09:06;;;;;;;11.05;7.88;;;;;;;19.52;100.00;100064.88;4964186;28;20064;-86
2022/08/29 06:11:32;;;;;;;11.35;8.35;;;;;;;19.61;100.00;100071.59;4962949;28;20406;-85
2022/08/29 06:13:58;;;;;;;15.10;7.80;;;;;;;19.58;100.00;100076.16;4980782;28;20043;-85
2022/08/29 06:16:25;;;;;;;12.00;7.90;;;;;;;19.62;100.00;100084.38;4961657;28;20038;-86
2022/08/29 06:18:51;;;;;;;10.68;7.95;;;;;;;19.65;100.00;100074.97;4961935;28;20485;-86
2022/08/29 06:21:17;;;;;;;11.93;7.82;;;;;;;19.77;100.00;100079.41;4958271;28;20542;-86
2022/08/29 06:23:43;;;;;;;11.45;8.20;;;;;;;19.76;100.00;100081.44;4965664;28;20043;-86
2022/08/29 06:26:09;;;;;;;11.75;7.55;;;;;;;19.77;100.00;100079.41;4955188;28;20046;-85
2022/08/29 06:28:37;;;;;;;11.60;7.65;;;;;;;19.90;100.00;100091.00;4961366;28;20050;-85
2022/08/29 06:31:09;;;;;;;13.48;8.07;;;;;;;19.97;100.00;100091.34;4962882;28;20039;-85
2022/08/29 06:33:35;;;;;;;11.00;7.78;;;;;;;20.07;100.00;100089.09;4982999;28;20061;-85
2022/08/29 06:36:02;;;;;;;10.05;7.88;;;;;;;20.14;100.00;100085.81;4964998;28;20038;-85
2022/08/29 06:38:27;;;;;;;11.25;7.45;;;;;;;20.14;100.00;100097.06;4971933;28;20046;-85
2022/08/29 06:40:53;;;;;;;11.73;8.02;;;;;;;20.27;100.00;100094.59;4978448;28;20100;-85
2022/08/29 06:43:19;;;;;;;8.85;7.32;;;;;;;20.34;100.00;100094.16;4965849;28;20042;-85
2022/08/29 06:45:44;;;;;;;9.77;7.10;;;;;;;20.35;100.00;100095.72;4979008;28;20043;-86
2022/08/29 06:48:10;;;;;;;10.77;7.53;;;;;;;20.37;100.00;100087.53;4961879;28;20043;-85
2022/08/29 06:50:36;;;;;;;8.63;7.13;;;;;;;20.38;100.00;100089.06;4979300;28;20042;-86
2022/08/29 06:53:02;;;;;;;8.23;7.00;;;;;;;20.51;100.00;100094.25;4961005;28;20047;-85
2022/08/29 06:55:28;;;;;;;11.85;7.22;;;;;;;20.48;100.00;100081.97;4981575;28;20514;-86
2022/08/29 06:57:53;;;;;;;9.57;7.20;;;;;;;20.58;100.00;100095.84;4964610;28;20042;-85
2022/08/29 07:00:20;;;;;;;8.38;7.22;;;;;;;20.61;100.00;100100.47;4974630;28;20453;-86
2022/08/29 07:02:49;;;;;;;10.57;7.32;;;;;;;20.68;100.00;100091.53;4970485;28;20047;-86
2022/08/29 07:05:15;;;;;;;8.02;6.90;;;;;;;20.78;100.00;100092.88;4970312;28;20462;-86
2022/08/29 07:07:41;;;;;;;11.23;7.10;;;;;;;20.77;100.00;100103.38;4970476;28;20042;-86
2022/08/29 07:10:07;;;;;;;8.70;6.90;;;;;;;20.87;100.00;100106.72;4970353;28;20054;-85
2022/08/29 07:12:33;;;;;;;8.52;7.45;;;;;;;20.99;100.00;100108.31;4970193;28;20511;-85
2022/08/29 07:15:00;;;;;;;8.52;7.28;;;;;;;21.07;100.00;100108.63;4970236;28;20047;-85
2022/08/29 07:17:27;;;;;;;10.27;6.80;;;;;;;21.15;100.00;100113.28;4969534;28;20319;-86
2022/08/29 07:19:53;;;;;;;9.27;7.05;;;;;;;21.11;100.00;100112.72;4970618;28;20525;-85
2022/08/29 07:22:18;;;;;;;9.07;6.47;;;;;;;21.18;100.00;100109.47;4972451;28;20046;-93
2022/08/29 07:24:44;;;;;;;8.43;6.43;;;;;;;21.26;100.00;100116.16;4976704;28;20062;-93
2022/08/29 07:27:11;;;;;;;10.10;6.40;;;;;;;21.37;100.00;100121.03;4975886;28;20427;-92
2022/08/29 07:29:37;;;;;;;7.97;6.22;;;;;;;21.37;100.00;100127.44;4975312;28;20153;-93
2022/08/29 07:32:03;;;;;;;10.23;6.45;;;;;;;21.44;100.00;100131.03;4977841;28;20043;-92
2022/08/29 07:34:29;;;;;;;9.30;6.18;;;;;;;21.59;100.00;100118.28;4978333;28;20039;-92
2022/08/29 07:36:55;;;;;;;7.97;6.13;;;;;;;21.56;100.00;100126.97;4977979;28;20458;-92
2022/08/29 07:39:21;;;;;;;9.80;7.00;;;;;;;21.67;100.00;100127.00;4984754;28;20075;-92
2022/08/29 07:41:47;;;;;;;7.72;6.07;;;;;;;21.87;99.25;100118.28;4967130;28;20082;-91
2022/08/29 07:44:13;;;;;;;8.95;6.13;;;;;;;21.83;98.77;100124.19;4983083;28;20066;-93
2022/08/29 07:46:40;;;;;;;9.23;6.35;;;;;;;21.88;98.66;100128.28;4990771;28;20086;-90
2022/08/29 07:49:06;;;;;;;6.97;5.85;;;;;;;22.01;97.89;100122.91;4974378;28;20042;-91
2022/08/29 07:51:31;;;;;;;7.95;5.72;;;;;;;22.19;98.33;100130.88;4973825;28;20042;-92
2022/08/29 07:53:57;;;;;;;7.55;5.93;;;;;;;22.27;97.30;100117.78;4973284;28;20042;-92
2022/08/29 07:56:26;;;;;;;9.50;5.90;;;;;;;22.41;97.19;100127.25;4975793;28;20054;-92
2022/08/29 07:58:52;;;;;;;8.23;5.75;;;;;;;22.62;94.89;100130.53;4979217;28;20051;-92
2022/08/29 08:01:18;;;;;;;9.32;5.80;;;;;;;22.56;94.68;100130.56;4959808;28;20062;-92
2022/08/29 08:03:43;;;;;;;7.90;5.80;;;;;;;22.66;93.83;100136.69;4965241;28;20042;-92
2022/08/29 08:06:10;;;;;;;7.50;5.88;;;;;;;22.67;94.78;100136.19;4963087;28;20076;-92
2022/08/29 08:08:36;;;;;;;11.18;6.00;;;;;;;22.67;94.43;100130.53;4964483;28;20046;-92
2022/08/29 08:11:04;;;;;;;7.55;5.93;;;;;;;22.83;94.91;100134.63;4974069;28;20035;-93
2022/08/29 08:13:30;;;;;;;8.02;5.30;;;;;;;22.85;93.46;100131.28;4965322;28;20051;-94
2022/08/29 08:15:56;;;;;;;6.88;5.25;;;;;;;22.97;92.87;100130.69;4972831;28;20581;-95
2022/08/29 08:18:22;;;;;;;6.07;5.43;;;;;;;23.12;93.80;100136.06;4972760;28;20034;-95
2022/08/29 08:20:47;;;;;;;7.15;5.38;;;;;;;23.21;92.35;100138.59;4985897;28;20031;-95
2022/08/29 08:23:17;;;;;;;7.78;5.72;;;;;;;23.30;91.76;100132.59;4977146;28;20668;-94
2022/08/29 08:25:44;;;;;;;8.30;5.13;;;;;;;23.16;92.53;100128.84;4980852;28;20026;-92
2022/08/29 08:28:13;;;;;;;8.98;5.22;;;;;;;23.05;92.24;100128.88;4974029;28;20463;-93
2022/08/29 08:30:39;;;;;;;8.60;5.60;;;;;;;23.07;91.89;100131.97;4975372;28;20039;-93
2022/08/29 08:33:05;;;;;;;10.05;6.07;;;;;;;23.14;91.58;100131.41;4975420;28;20074;-93
2022/08/29 08:35:33;;;;;;;8.57;5.80;;;;;;;23.08;92.46;100136.34;4991908;28;20081;-93
2022/08/29 08:38:00;;;;;;;6.32;5.15;;;;;;;23.04;93.00;100144.31;4967693;28;20062;-92
2022/08/29 08:40:27;;;;;;;9.48;5.20;;;;;;;22.91;91.90;100141.28;4965695;28;20054;-92
2022/08/29 08:48:27;;;;;;;7.88;5.65;;;;;;;23.02;95.16;100134.78;4949424;29;20485;-79
2022/08/29 08:50:59;;;;;;;9.73;5.93;;;;;;;23.31;91.00;100142.63;4937083;29;20039;-78
2022/08/29 08:53:43;;;;;;;6.72;5.28;;;;;;;23.53;90.36;100147.44;4928182;29;20058;-79
2022/08/29 08:56:17;;;;;;;6.40;5.20;;;;;;;23.60;90.73;100138.38;4928501;29;20086;-79
2022/08/29 08:59:17;;;;;;;7.63;5.43;;;;;;;23.95;90.10;100141.19;4923240;29;20501;-96
2022/08/29 09:01:55;;;;;;;8.45;5.30;;;;;;;24.19;86.81;100136.91;4864275;29;20066;-96
2022/08/29 09:04:36;;;;;;;6.93;5.18;;;;;;;24.27;85.66;100146.38;4941404;29;20052;-96
2022/08/29 09:07:11;;;;;;;6.90;5.10;;;;;;;24.20;87.28;100144.13;4948287;29;20043;-96
2022/08/29 09:09:58;;;;;;;7.15;5.22;;;;;;;24.10;87.50;100147.25;4952262;29;20039;-96
2022/08/29 09:13:05;;;;;;;6.45;4.93;;;;;;;23.99;88.16;100147.34;4945800;29;20053;-96
2022/08/29 09:15:41;;;;;;;6.50;5.35;;;;;;;24.02;88.03;100137.78;4920074;29;20130;-95
2022/08/29 09:18:10;;;;;;;7.25;5.47;;;;;;;23.89;87.63;100136.88;4920548;29;20051;-79
2022/08/29 09:20:39;;;;;;;6.50;5.70;;;;;;;23.77;88.58;100141.88;4899729;29;20167;-79
2022/08/29 09:23:40;;;;;;;5.85;5.18;;;;;;;23.69;88.47;100150.16;4926340;29;20130;-78
2022/08/29 09:26:05;;;;;;;5.95;4.63;;;;;;;23.77;89.08;100139.03;4927073;29;20134;-79
2022/08/29 09:28:31;;;;;;;8.20;4.80;;;;;;;23.94;87.15;100139.66;4903342;29;20179;-79
2022/08/29 09:31:33;;;;;;;6.43;4.60;;;;;;;24.36;86.23;100135.47;4914692;29;20032;-78
2022/08/29 09:34:00;;;;;;;7.25;4.68;;;;;;;24.95;82.35;100143.09;4922396;29;20136;-78
2022/08/29 09:36:36;;;;;;;6.97;4.32;;;;;;;25.38;82.26;100142.28;4922337;29;20529;-79
2022/08/29 09:39:16;;;;;;;4.70;4.13;;;;;;;25.49;79.98;100137.22;4932778;29;20047;-96
2022/08/29 09:41:44;;;;;;;5.53;4.45;;;;;;;25.77;80.15;100139.66;4911907;29;20051;-79
2022/08/29 09:44:23;;;;;;;5.65;4.50;;;;;;;25.44;80.13;100146.56;4891600;29;20055;-79
2022/08/29 09:47:19;;;;;;;5.55;3.90;;;;;;;24.93;79.47;100140.03;4934068;29;20039;-79
2022/08/29 09:50:16;;;;;;;5.93;4.32;;;;;;;24.59;81.21;100144.50;4914892;28;20043;-79
2022/08/29 09:52:55;;;;;;;6.57;3.78;;;;;;;24.61;83.38;100131.34;4929993;28;20062;-79
2022/08/29 09:55:23;;;;;;;5.20;3.70;;;;;;;25.08;80.03;100119.72;4923775;29;20098;-79
2022/08/29 09:57:54;;;;;;;5.50;3.80;;;;;;;25.79;78.49;100125.69;4942954;28;20055;-96
2022/08/29 10:00:28;;;;;;;4.50;3.92;;;;;;;26.13;76.22;100130.81;4894760;29;20111;-79
2022/08/29 10:02:58;;;;;;;5.93;3.90;;;;;;;26.12;76.23;100126.44;4910674;28;20489;-79
2022/08/29 10:05:33;;;;;;;5.30;4.10;;;;;;;26.16;76.26;100126.91;4907780;29;20524;-79
2022/08/29 10:08:00;;;;;;;5.07;3.72;;;;;;;26.63;75.18;100136.41;4919094;29;20058;-79
2022/08/29 10:10:29;;;;;;;5.97;3.67;;;;;;;26.67;73.18;100134.00;4928984;28;20039;-79
2022/08/29 10:13:09;;;;;;;5.03;3.70;;;;;;;26.54;71.55;100136.81;4920563;29;20199;-79
2022/08/29 10:15:43;;;;;;;6.82;3.95;;;;;;;26.93;72.01;100116.19;4910988;29;20115;-79
2022/08/29 10:18:57;;;;;;;4.82;3.83;;;;;;;27.32;69.98;100129.56;4915323;29;20056;-79
2022/08/29 10:21:38;;;;;;;4.93;3.60;;;;;;;27.14;69.91;100136.16;4922964;29;20107;-79
2022/08/29 10:24:25;;;;;;;4.50;3.42;;;;;;;27.02;69.19;100129.16;4902493;28;20464;-79
2022/08/29 10:27:38;;;;;;;8.55;3.88;;;;;;;27.02;69.50;100129.16;4944283;28;20036;-79
2022/08/29 10:30:04;;;;;;;5.50;3.60;;;;;;;27.10;70.37;100139.34;4901797;28;20047;-79
2022/08/29 10:32:38;;;;;;;4.03;3.30;;;;;;;27.22;69.89;100128.47;4930477;28;20055;-79
2022/08/29 10:35:15;;;;;;;3.90;3.03;;;;;;;27.24;67.52;100134.41;4921134;29;20055;-79
2022/08/29 10:37:52;;;;;;;5.35;3.72;;;;;;;27.38;68.02;100133.03;4915253;29;20134;-79
2022/08/29 10:40:25;;;;;;;4.15;3.40;;;;;;;27.78;66.91;100134.47;4898315;28;20103;-79
2022/08/29 10:42:56;;;;;;;4.78;3.60;;;;;;;27.64;66.80;100129.38;4933964;28;20055;-79
2022/08/29 10:45:29;;;;;;;6.18;3.80;;;;;;;27.56;66.38;100126.47;4927734;28;20060;-79
2022/08/29 10:48:36;;;;;;;4.43;3.28;;;;;;;27.39;67.93;100131.72;4925070;28;20109;-79
2022/08/29 10:51:19;;;;;;;4.97;3.95;;;;;;;27.68;67.10;100127.72;4923886;29;20058;-79
2022/08/29 10:53:51;;;;;;;4.95;3.70;;;;;;;27.90;66.74;100125.66;4915059;29;20051;-79
2022/08/29 10:56:27;;;;;;;4.68;3.35;;;;;;;28.03;64.58;100136.97;4909139;29;20043;-96
2022/08/29 10:59:11;;;;;;;5.88;3.90;;;;;;;28.10;65.05;100128.53;4922109;29;20047;-96
2022/08/29 11:01:49;;;;;;;4.28;3.63;;;;;;;28.21;66.71;100124.63;4936980;28;20051;-96
2022/08/29 11:04:31;;;;;;;6.20;3.70;;;;;;;28.23;64.20;100119.13;4927526;28;20063;-96
2022/08/29 11:07:15;;;;;;;5.28;3.70;;;;;;;27.22;66.22;100131.31;4932465;29;20063;-96
2022/08/29 11:09:51;;;;;;;6.00;3.80;;;;;;;27.35;65.19;100125.59;4915817;29;20481;-96
2022/08/29 11:12:22;;;;;;;4.13;3.38;;;;;;;27.31;64.97;100119.47;4922451;29;20123;-96
2022/08/29 11:15:08;;;;;;;5.20;3.78;;;;;;;27.37;64.30;100128.69;4906107;29;20048;-79
2022/08/29 11:17:37;;;;;;;5.72;3.40;;;;;;;27.35;65.78;100119.91;4888054;29;20409;-79
2022/08/29 11:20:16;;;;;;;4.82;3.63;;;;;;;27.48;63.03;100110.59;4912621;29;20142;-79
2022/08/29 11:23:08;;;;;;;4.00;3.20;;;;;;;27.57;64.80;100121.53;4900984;29;20067;-79
2022/08/29 11:25:34;;;;;;;4.25;3.53;;;;;;;27.49;63.75;100101.50;4912772;29;20054;-79
2022/08/29 11:28:07;;;;;;;4.40;3.60;;;;;;;27.61;64.21;100114.16;4899753;29;20048;-79
2022/08/29 11:30:37;;;;;;;7.20;3.65;;;;;;;27.92;63.69;100108.75;4897565;29;20628;-78
2022/08/29 11:33:44;;;;;;;5.00;3.40;;;;;;;27.92;61.92;100112.38;4927061;29;20454;-95
2022/08/29 11:36:33;;;;;;;4.50;3.28;;;;;;;28.23;61.35;100104.84;4926182;29;20054;-95
2022/08/29 11:39:53;;;;;;;5.47;3.70;;;;;;;28.52;60.69;100111.34;4919525;28;20056;-96
2022/08/29 11:42:22;;;;;;;4.53;3.05;;;;;;;28.66;59.21;100112.78;4842621;29;20057;-96
2022/08/29 11:44:53;;;;;;;5.38;3.60;;;;;;;28.51;59.12;100101.28;4886466;29;20043;-95
2022/08/29 11:47:42;;;;;;;4.97;3.40;;;;;;;28.58;60.02;100098.47;4912630;29;20055;-96
2022/08/29 11:50:20;;;;;;;4.78;3.72;;;;;;;28.65;60.24;100100.59;4926036;29;20044;-79
2022/08/29 11:52:48;;;;;;;5.72;3.70;;;;;;;28.22;61.50;100100.50;4925722;29;20055;-96
2022/08/29 11:55:27;;;;;;;5.15;3.40;;;;;;;28.26;59.79;100095.97;4927262;28;20800;-95
2022/08/29 11:58:06;;;;;;;5.75;3.78;;;;;;;28.18;60.99;100098.00;4914795;29;20087;-96
2022/08/29 12:00:41;;;;;;;4.93;3.53;;;;;;;28.28;60.46;100092.53;4916362;29;20082;-94
2022/08/29 12:03:32;;;;;;;4.68;3.17;;;;;;;28.19;61.45;100098.75;4917583;29;20039;-96
2022/08/29 12:05:58;;;;;;;5.18;3.90;;;;;;;28.41;62.58;100101.00;4919204;29;20091;-96
2022/08/29 12:08:32;;;;;;;7.57;3.78;;;;;;;28.21;61.32;100079.78;4910136;29;20043;-96
2022/08/29 12:10:59;;;;;;;5.65;3.28;;;;;;;28.54;60.66;100069.53;4924285;29;20073;-94
2022/08/29 12:13:46;;;;;;;5.07;3.75;;;;;;;28.70;60.13;100088.28;4922215;28;20163;-78
2022/08/29 12:16:15;;;;;;;7.22;3.70;;;;;;;28.68;58.68;100075.88;4928434;28;20043;-78